createdAt,value
2019-04-28T00:02:36.213Z,97.60
2019-04-28T00:05:24.175Z,96.70
2019-04-28T00:08:12.609Z,96.70
2019-04-28T00:11:01.790Z,96.40
2019-04-28T00:13:53.211Z,96.30
2019-04-28T00:16:41.164Z,96.60
2019-04-28T00:19:30.961Z,96.80
2019-04-28T00:22:23.040Z,96.80
2019-04-28T00:25:13.064Z,96.50
2019-04-28T00:28:01.653Z,96.60
2019-04-28T00:30:51.707Z,97.00
2019-04-28T00:33:41.035Z,97.40
2019-04-28T00:36:31.292Z,97.30
2019-04-28T00:39:21.163Z,97.50
2019-04-28T00:42:11.651Z,96.50
2019-04-28T00:44:59.304Z,96.30
2019-04-28T00:47:47.362Z,95.90
2019-04-28T00:50:35.457Z,96.10
2019-04-28T00:53:23.440Z,95.60
2019-04-28T00:56:12.095Z,95.30
2019-04-28T00:59:01.681Z,95.50
2019-04-28T01:01:57.797Z,96.00
2019-04-28T01:04:45.289Z,95.80
2019-04-28T01:07:33.534Z,96.00
2019-04-28T01:10:22.128Z,96.90
2019-04-28T01:13:11.593Z,96.80
2019-04-28T01:16:19.409Z,96.90
2019-04-28T01:19:10.118Z,96.90
2019-04-28T01:22:10.302Z,97.10
2019-04-28T01:24:59.598Z,96.80
2019-04-28T01:27:50.588Z,96.60
2019-04-28T01:30:46.136Z,96.80
2019-04-28T01:33:35.805Z,96.70
2019-04-28T01:36:23.420Z,96.60
2019-04-28T01:39:11.499Z,96.40
2019-04-28T01:41:59.701Z,96.80
2019-04-28T01:44:49.387Z,97.80
2019-04-28T01:47:37.751Z,98.30
2019-04-28T01:50:25.681Z,98.70
2019-04-28T01:53:13.394Z,99.70
2019-04-28T01:56:01.819Z,99.90
2019-04-28T01:58:51.697Z,99.90
2019-04-28T02:01:40.054Z,99.90
2019-04-28T02:04:32.166Z,99.60
2019-04-28T02:07:18.010Z,99.70
2019-04-28T02:10:06.582Z,99.70
2019-04-28T02:12:54.568Z,99.90
2019-04-28T02:15:42.442Z,99.90
2019-04-28T02:18:31.046Z,99.90
2019-04-28T02:21:26.751Z,99.90
2019-04-28T02:24:34.771Z,99.90
2019-04-28T02:27:22.468Z,99.90
2019-04-28T02:30:11.749Z,99.90
2019-04-28T02:33:01.650Z,99.90
2019-04-28T02:35:51.062Z,99.90
2019-04-28T02:38:41.391Z,99.90
2019-04-28T02:41:30.619Z,99.90
2019-04-28T02:44:23.074Z,99.90
2019-04-28T02:47:10.727Z,99.90
2019-04-28T02:50:01.272Z,99.90
2019-04-28T02:52:53.612Z,99.90
2019-04-28T02:55:42.097Z,99.90
2019-04-28T02:58:31.261Z,99.90
2019-04-28T03:01:26.238Z,99.90
2019-04-28T03:04:12.150Z,99.90
2019-04-28T03:07:01.237Z,99.90
2019-04-28T03:09:51.748Z,99.90
2019-04-28T03:12:37.866Z,99.90
2019-04-28T03:15:26.331Z,99.90
2019-04-28T03:18:14.785Z,99.90
2019-04-28T03:21:04.369Z,99.90
2019-04-28T03:23:52.050Z,99.90
2019-04-28T03:26:44.999Z,99.90
2019-04-28T03:29:34.582Z,99.90
2019-04-28T03:32:45.317Z,99.90
2019-04-28T03:35:23.250Z,99.90
2019-04-28T03:38:11.855Z,99.90
2019-04-28T03:41:01.020Z,99.90
2019-04-28T03:43:51.236Z,99.90
2019-04-28T03:46:42.534Z,99.90
2019-04-28T03:49:32.945Z,99.90
2019-04-28T03:52:21.622Z,99.90
2019-04-28T03:55:11.741Z,99.90
2019-04-28T03:58:00.917Z,99.90
2019-04-28T04:00:50.713Z,99.90
2019-04-28T04:03:37.669Z,99.90
2019-04-28T04:06:26.264Z,99.90
2019-04-28T04:09:13.999Z,99.90
2019-04-28T04:12:21.190Z,99.90
2019-04-28T04:15:11.341Z,99.90
2019-04-28T04:18:06.332Z,99.90
2019-04-28T04:20:54.546Z,99.90
2019-04-28T04:23:42.591Z,99.90
2019-04-28T04:26:33.225Z,99.90
2019-04-28T04:29:21.703Z,99.90
2019-04-28T04:32:19.099Z,99.90
2019-04-28T04:35:00.707Z,99.90
2019-04-28T04:37:50.357Z,99.90
2019-04-28T04:40:41.010Z,99.90
2019-04-28T04:43:30.855Z,99.90
2019-04-28T04:46:21.942Z,99.90
2019-04-28T04:49:10.702Z,99.90
2019-04-28T04:52:00.409Z,99.90
2019-04-28T04:54:51.048Z,99.90
2019-04-28T04:57:38.137Z,99.90
2019-04-28T05:00:30.722Z,99.90
2019-04-28T05:03:23.105Z,99.90
2019-04-28T05:06:29.845Z,99.90
2019-04-28T05:09:19.610Z,99.90
2019-04-28T05:12:09.636Z,99.90
2019-04-28T05:14:58.280Z,99.90
2019-04-28T05:17:46.116Z,99.90
2019-04-28T05:20:34.349Z,99.90
2019-04-28T05:23:23.897Z,99.90
2019-04-28T05:26:12.146Z,99.90
2019-04-28T05:29:00.568Z,99.90
2019-04-28T05:31:50.376Z,99.90
2019-04-28T05:34:39.822Z,99.90
2019-04-28T05:37:27.112Z,99.90
2019-04-28T05:40:15.583Z,99.90
2019-04-28T05:43:04.232Z,99.90
2019-04-28T05:45:52.476Z,99.90
2019-04-28T05:48:44.797Z,99.90
2019-04-28T05:51:37.388Z,99.90
2019-04-28T05:54:26.714Z,99.90
2019-04-28T05:57:20.699Z,99.90
2019-04-28T06:00:11.648Z,99.90
2019-04-28T06:03:03.815Z,99.90
2019-04-28T06:05:51.524Z,99.90
2019-04-28T06:08:41.041Z,99.90
2019-04-28T06:11:30.822Z,99.90
2019-04-28T06:14:40.148Z,99.90
2019-04-28T06:17:29.381Z,99.90
2019-04-28T06:20:17.012Z,99.90
2019-04-28T06:23:04.935Z,99.90
2019-04-28T06:25:53.094Z,99.90
2019-04-28T06:28:41.374Z,99.90
2019-04-28T06:31:29.887Z,99.90
2019-04-28T06:34:17.865Z,99.90
2019-04-28T06:37:06.103Z,99.90
2019-04-28T06:39:54.159Z,99.90
2019-04-28T06:42:44.030Z,99.90
2019-04-28T06:45:32.240Z,99.90
2019-04-28T06:48:20.454Z,99.90
2019-04-28T06:51:08.602Z,99.90
2019-04-28T06:53:56.378Z,99.90
2019-04-28T06:56:44.517Z,99.90
2019-04-28T06:59:32.263Z,99.90
2019-04-28T07:02:20.765Z,99.90
2019-04-28T07:05:08.629Z,99.90
2019-04-28T07:07:56.559Z,99.90
2019-04-28T07:10:44.747Z,99.90
2019-04-28T07:13:32.859Z,99.90
2019-04-28T07:16:21.282Z,99.90
2019-04-28T07:19:09.900Z,99.90
2019-04-28T07:22:05.184Z,99.80
2019-04-28T07:24:53.382Z,99.90
2019-04-28T07:27:41.621Z,99.90
2019-04-28T07:30:30.214Z,99.90
2019-04-28T07:33:18.781Z,99.60
2019-04-28T07:36:07.021Z,99.90
2019-04-28T07:38:55.037Z,98.90
2019-04-28T07:41:43.756Z,99.00
2019-04-28T07:44:31.698Z,98.30
2019-04-28T07:47:19.974Z,98.00
2019-04-28T07:50:08.997Z,98.10
2019-04-28T07:52:59.136Z,97.80
2019-04-28T07:55:47.030Z,98.30
2019-04-28T07:58:34.973Z,97.40
2019-04-28T08:01:22.959Z,97.60
2019-04-28T08:04:12.933Z,97.70
2019-04-28T08:07:00.884Z,98.10
2019-04-28T08:09:48.829Z,97.60
2019-04-28T08:12:36.810Z,97.80
2019-04-28T08:15:24.947Z,98.10
2019-04-28T08:18:13.178Z,97.20
2019-04-28T08:21:01.335Z,96.90
2019-04-28T08:23:49.392Z,96.90
2019-04-28T08:26:37.989Z,97.10
2019-04-28T08:29:26.129Z,97.20
2019-04-28T08:32:19.009Z,96.80
2019-04-28T08:35:26.062Z,96.10
2019-04-28T08:38:14.502Z,96.20
2019-04-28T08:41:02.830Z,96.70
2019-04-28T08:43:50.550Z,96.30
2019-04-28T08:46:38.596Z,96.60
2019-04-28T08:49:27.052Z,95.90
2019-04-28T08:52:14.738Z,96.70
2019-04-28T08:55:04.755Z,96.10
2019-04-28T08:57:52.457Z,96.60
2019-04-28T09:00:40.901Z,95.50
2019-04-28T09:03:28.880Z,96.10
2019-04-28T09:06:17.319Z,95.30
2019-04-28T09:09:07.626Z,95.00
2019-04-28T09:11:55.628Z,96.00
2019-04-28T09:14:43.309Z,95.70
2019-04-28T09:17:31.416Z,96.10
2019-04-28T09:20:18.969Z,96.00
2019-04-28T09:23:07.325Z,96.50
2019-04-28T09:25:54.995Z,96.20
2019-04-28T09:28:43.413Z,95.80
2019-04-28T09:31:31.415Z,96.20
2019-04-28T09:34:28.069Z,95.60
2019-04-28T09:37:10.608Z,95.90
2019-04-28T09:40:09.328Z,94.80
2019-04-28T09:43:10.786Z,94.70
2019-04-28T09:46:00.426Z,94.50
2019-04-28T09:48:48.169Z,95.20
2019-04-28T09:51:35.903Z,95.30
2019-04-28T09:54:24.265Z,94.30
2019-04-28T09:57:12.903Z,93.80
2019-04-28T10:00:00.633Z,94.00
2019-04-28T10:02:49.012Z,92.80
2019-04-28T10:05:37.550Z,93.30
2019-04-28T10:08:27.876Z,93.40
2019-04-28T10:11:15.766Z,94.00
2019-04-28T10:14:04.127Z,94.00
2019-04-28T10:16:52.151Z,93.10
2019-04-28T10:19:40.643Z,93.70
2019-04-28T10:22:48.273Z,93.70
2019-04-28T10:25:36.313Z,94.00
2019-04-28T10:28:24.117Z,93.40
2019-04-28T10:31:13.500Z,93.10
2019-04-28T10:34:03.969Z,94.20
2019-04-28T10:36:51.688Z,93.00
2019-04-28T10:39:47.951Z,92.80
2019-04-28T10:42:59.195Z,93.70
2019-04-28T10:45:48.989Z,94.10
2019-04-28T10:48:36.768Z,92.30
2019-04-28T10:51:24.791Z,93.90
2019-04-28T10:54:13.594Z,93.40
2019-04-28T10:57:01.894Z,93.30
2019-04-28T10:59:49.646Z,92.70
2019-04-28T11:02:39.066Z,92.80
2019-04-28T11:05:31.116Z,92.30
2019-04-28T11:08:20.368Z,92.30
2019-04-28T11:11:09.905Z,92.70
2019-04-28T11:13:58.224Z,92.50
2019-04-28T11:16:46.681Z,92.40
2019-04-28T11:19:34.787Z,91.30
2019-04-28T11:22:23.103Z,91.50
2019-04-28T11:25:31.874Z,92.20
2019-04-28T11:28:39.206Z,92.30
2019-04-28T11:31:27.229Z,91.60
2019-04-28T11:34:28.108Z,91.10
2019-04-28T11:37:15.862Z,92.10
2019-04-28T11:40:05.019Z,91.80
2019-04-28T11:42:52.639Z,91.50
2019-04-28T11:45:40.424Z,91.30
2019-04-28T11:48:28.703Z,91.10
2019-04-28T11:51:16.531Z,91.60
2019-04-28T11:54:04.446Z,91.50
2019-04-28T11:56:52.716Z,91.80
2019-04-28T11:59:41.470Z,92.10
2019-04-28T12:02:29.936Z,91.70
2019-04-28T12:05:19.926Z,91.70
2019-04-28T12:08:08.073Z,92.50
2019-04-28T12:11:10.515Z,91.70
2019-04-28T12:14:03.106Z,91.40
2019-04-28T12:17:14.435Z,91.20
2019-04-28T12:20:21.339Z,92.40
2019-04-28T12:23:09.889Z,91.60
2019-04-28T12:25:57.968Z,90.10
2019-04-28T12:28:47.359Z,88.70
2019-04-28T12:31:35.629Z,90.50
2019-04-28T12:34:24.046Z,90.00
2019-04-28T12:37:12.037Z,90.80
2019-04-28T12:39:59.546Z,90.50
2019-04-28T12:42:47.653Z,89.50
2019-04-28T12:45:35.646Z,90.20
2019-04-28T12:48:23.932Z,90.70
2019-04-28T12:51:12.292Z,91.10
2019-04-28T12:54:01.871Z,90.10
2019-04-28T12:56:49.594Z,90.40
2019-04-28T12:59:48.675Z,90.60
2019-04-28T13:02:54.715Z,90.80
2019-04-28T13:05:44.821Z,91.10
2019-04-28T13:08:32.605Z,91.50
2019-04-28T13:11:20.635Z,90.80
2019-04-28T13:14:08.754Z,90.70
2019-04-28T13:16:57.163Z,90.50
2019-04-28T13:19:45.267Z,90.50
2019-04-28T13:22:33.445Z,90.10
2019-04-28T13:25:21.656Z,90.80
2019-04-28T13:28:09.627Z,90.20
2019-04-28T13:30:57.446Z,90.10
2019-04-28T13:33:55.938Z,90.60
2019-04-28T13:36:34.857Z,90.70
2019-04-28T13:39:36.366Z,90.10
2019-04-28T13:42:24.358Z,88.70
2019-04-28T13:45:14.733Z,90.00
2019-04-28T13:48:03.072Z,88.80
2019-04-28T13:50:51.923Z,90.20
2019-04-28T13:53:40.357Z,90.00
2019-04-28T13:56:28.529Z,90.10
2019-04-28T13:59:18.347Z,87.50
2019-04-28T14:02:22.824Z,87.60
2019-04-28T14:05:15.037Z,87.30
2019-04-28T14:08:02.994Z,86.90
2019-04-28T14:10:51.479Z,87.80
2019-04-28T14:13:39.311Z,89.50
2019-04-28T14:16:28.012Z,87.80
2019-04-28T14:19:16.016Z,90.20
2019-04-28T14:22:04.416Z,88.10
2019-04-28T14:24:53.215Z,89.30
2019-04-28T14:27:41.033Z,89.40
2019-04-28T14:30:28.927Z,89.00
2019-04-28T14:33:17.180Z,88.40
2019-04-28T14:36:05.647Z,88.50
2019-04-28T14:38:54.055Z,88.10
2019-04-28T14:41:42.004Z,87.10
2019-04-28T14:44:29.503Z,86.00
2019-04-28T14:47:17.868Z,87.00
2019-04-28T14:50:07.204Z,85.60
2019-04-28T14:52:55.420Z,86.70
2019-04-28T14:55:43.702Z,86.60
2019-04-28T14:58:31.995Z,86.50
2019-04-28T15:01:39.948Z,86.90
2019-04-28T15:04:45.691Z,87.80
2019-04-28T15:07:51.816Z,87.20
2019-04-28T15:10:53.914Z,88.70
2019-04-28T15:13:42.553Z,88.40
2019-04-28T15:16:30.870Z,87.70
2019-04-28T15:19:18.681Z,87.80
2019-04-28T15:22:06.848Z,84.30
2019-04-28T15:24:54.483Z,84.90
2019-04-28T15:27:43.038Z,86.40
2019-04-28T15:30:31.556Z,86.80
2019-04-28T15:33:19.991Z,85.20
2019-04-28T15:36:08.007Z,83.20
2019-04-28T15:38:56.251Z,85.00
2019-04-28T15:41:44.168Z,81.40
2019-04-28T15:44:31.687Z,78.90
2019-04-28T15:47:20.490Z,80.00
2019-04-28T15:50:09.644Z,82.50
2019-04-28T15:52:57.785Z,84.00
2019-04-28T15:55:50.375Z,82.20
2019-04-28T15:58:39.797Z,79.80
2019-04-28T16:01:27.538Z,80.10
2019-04-28T16:04:18.177Z,82.70
2019-04-28T16:07:05.033Z,83.50
2019-04-28T16:09:53.328Z,83.70
2019-04-28T16:12:42.544Z,81.80
2019-04-28T16:15:31.002Z,85.10
2019-04-28T16:18:20.872Z,86.10
2019-04-28T16:21:08.686Z,86.50
2019-04-28T16:23:57.329Z,86.40
2019-04-28T16:26:45.490Z,85.90
2019-04-28T16:29:33.527Z,83.90
2019-04-28T16:32:22.049Z,84.70
2019-04-28T16:35:11.790Z,85.90
2019-04-28T16:37:59.741Z,87.00
2019-04-28T16:40:48.402Z,86.50
2019-04-28T16:43:37.449Z,86.00
2019-04-28T16:46:25.088Z,86.50
2019-04-28T16:49:13.235Z,85.70
2019-04-28T16:52:01.701Z,85.20
2019-04-28T16:54:51.422Z,86.20
2019-04-28T16:57:41.027Z,87.00
2019-04-28T17:00:46.725Z,86.70
2019-04-28T17:03:36.331Z,86.20
2019-04-28T17:06:24.262Z,86.90
2019-04-28T17:09:13.197Z,87.00
2019-04-28T17:12:01.040Z,87.40
2019-04-28T17:14:48.840Z,84.00
2019-04-28T17:17:36.727Z,84.20
2019-04-28T17:20:25.543Z,86.40
2019-04-28T17:23:13.943Z,87.30
2019-04-28T17:26:01.961Z,87.20
2019-04-28T17:28:49.701Z,90.20
2019-04-28T17:31:39.494Z,90.10
2019-04-28T17:34:27.698Z,90.20
2019-04-28T17:37:16.174Z,89.10
2019-04-28T17:40:06.337Z,89.40
2019-04-28T17:42:54.462Z,88.70
2019-04-28T17:45:42.643Z,84.70
2019-04-28T17:48:47.781Z,86.20
2019-04-28T17:51:36.151Z,85.50
2019-04-28T17:54:24.096Z,86.20
2019-04-28T17:57:11.853Z,87.50
2019-04-28T18:00:01.932Z,86.40
2019-04-28T18:02:57.050Z,84.10
2019-04-28T18:05:52.822Z,83.20
2019-04-28T18:08:41.102Z,82.30
2019-04-28T18:11:29.005Z,80.30
2019-04-28T18:14:27.485Z,82.90
2019-04-28T18:17:35.723Z,83.10
2019-04-28T18:20:23.877Z,80.50
2019-04-28T18:23:11.843Z,79.40
2019-04-28T18:26:00.370Z,81.30
2019-04-28T18:28:48.786Z,83.00
2019-04-28T18:31:57.517Z,84.60
2019-04-28T18:34:50.001Z,85.30
2019-04-28T18:37:42.590Z,88.00
2019-04-28T18:40:41.782Z,89.00
2019-04-28T18:43:48.284Z,90.00
2019-04-28T18:46:56.327Z,90.00
2019-04-28T18:49:44.468Z,90.30
2019-04-28T18:52:32.240Z,90.30
2019-04-28T18:55:20.905Z,90.60
2019-04-28T18:58:09.396Z,91.00
2019-04-28T19:00:59.206Z,91.20
2019-04-28T19:03:47.060Z,91.50
2019-04-28T19:06:35.430Z,92.00
2019-04-28T19:09:27.671Z,91.90
2019-04-28T19:12:16.869Z,92.10
2019-04-28T19:15:16.595Z,92.40
2019-04-28T19:18:06.107Z,92.70
2019-04-28T19:20:53.957Z,92.70
2019-04-28T19:23:41.689Z,92.90
2019-04-28T19:26:29.997Z,92.60
2019-04-28T19:29:17.986Z,92.60
2019-04-28T19:32:05.774Z,92.90
2019-04-28T19:34:54.294Z,93.00
2019-04-28T19:37:43.033Z,93.10
2019-04-28T19:40:31.883Z,93.30
2019-04-28T19:43:20.134Z,93.40
2019-04-28T19:46:09.799Z,93.50
2019-04-28T19:48:57.817Z,94.10
2019-04-28T19:51:46.529Z,94.20
2019-04-28T19:54:36.589Z,94.40
2019-04-28T19:57:28.863Z,94.60
2019-04-28T20:00:30.965Z,94.70
2019-04-28T20:03:18.954Z,94.60
2019-04-28T20:06:07.909Z,93.90
2019-04-28T20:08:56.680Z,94.50
2019-04-28T20:11:45.393Z,94.20
2019-04-28T20:14:33.665Z,94.70
2019-04-28T20:17:21.814Z,95.10
2019-04-28T20:20:10.027Z,94.90
2019-04-28T20:22:59.019Z,95.10
2019-04-28T20:25:47.597Z,95.40
2019-04-28T20:28:35.385Z,95.30
2019-04-28T20:31:23.345Z,95.30
2019-04-28T20:34:11.662Z,95.40
2019-04-28T20:37:17.604Z,95.90
2019-04-28T20:40:09.510Z,95.60
2019-04-28T20:43:02.105Z,95.20
2019-04-28T20:45:50.087Z,95.00
2019-04-28T20:48:37.986Z,95.30
2019-04-28T20:51:25.701Z,95.30
2019-04-28T20:54:14.007Z,94.90
2019-04-28T20:57:02.724Z,95.40
2019-04-28T21:00:10.673Z,95.30
2019-04-28T21:02:58.571Z,96.10
2019-04-28T21:05:46.751Z,96.30
2019-04-28T21:08:34.859Z,95.80
2019-04-28T21:11:23.411Z,95.50
2019-04-28T21:14:11.867Z,95.10
2019-04-28T21:17:00.308Z,95.90
2019-04-28T21:19:48.990Z,96.10
2019-04-28T21:22:36.934Z,95.80
2019-04-28T21:25:24.436Z,96.20
2019-04-28T21:28:12.249Z,96.90
2019-04-28T21:31:00.507Z,97.40
2019-04-28T21:33:48.721Z,97.00
2019-04-28T21:36:36.808Z,96.40
2019-04-28T21:39:24.858Z,95.40
2019-04-28T21:42:14.248Z,95.70
2019-04-28T21:45:03.683Z,97.10
2019-04-28T21:47:51.836Z,96.60
2019-04-28T21:50:40.630Z,96.80
2019-04-28T21:53:29.111Z,96.30
2019-04-28T21:56:17.730Z,96.00
2019-04-28T21:59:05.769Z,96.50
2019-04-28T22:01:54.239Z,96.10
2019-04-28T22:04:42.211Z,95.90
2019-04-28T22:07:29.911Z,96.50
2019-04-28T22:10:18.297Z,96.90
2019-04-28T22:13:06.098Z,97.20
2019-04-28T22:15:53.821Z,97.10
2019-04-28T22:18:42.444Z,97.00
2019-04-28T22:21:30.496Z,97.10
2019-04-28T22:24:20.810Z,97.00
2019-04-28T22:27:10.115Z,97.10
2019-04-28T22:29:58.113Z,96.90
2019-04-28T22:32:45.613Z,97.10
2019-04-28T22:35:33.451Z,97.10
2019-04-28T22:38:21.495Z,97.30
2019-04-28T22:41:09.198Z,97.10
2019-04-28T22:43:57.695Z,97.00
2019-04-28T22:46:45.964Z,97.10
2019-04-28T22:49:34.078Z,97.90
2019-04-28T22:52:22.440Z,98.00
2019-04-28T22:55:12.364Z,97.70
2019-04-28T22:58:18.461Z,97.40
2019-04-28T23:01:11.171Z,96.80
2019-04-28T23:04:00.721Z,97.00
2019-04-28T23:06:48.750Z,97.60
2019-04-28T23:09:36.842Z,97.30
2019-04-28T23:12:25.090Z,97.60
2019-04-28T23:15:14.090Z,97.60
2019-04-28T23:18:02.568Z,97.60
2019-04-28T23:20:59.511Z,98.10
2019-04-28T23:23:47.835Z,98.10
2019-04-28T23:26:35.761Z,97.80
2019-04-28T23:29:24.460Z,97.70
2019-04-28T23:32:12.533Z,96.90
2019-04-28T23:35:00.759Z,96.60
2019-04-28T23:37:48.963Z,96.20
2019-04-28T23:40:39.079Z,95.90
2019-04-28T23:43:26.715Z,96.20
2019-04-28T23:46:14.987Z,96.80
2019-04-28T23:49:03.112Z,96.50
2019-04-28T23:51:58.507Z,97.20
2019-04-28T23:54:51.389Z,97.30
2019-04-28T23:57:39.537Z,97.20
